Flight Track Log - Related Links

Times and Time Zones

All times are in EDT time to prevent confusion due to time zone crossing. See the RPA3392 flight status page for this flight to view local times or setup timezone preferences in your user account.

Time Position Orientation Groundspeed Altitude Reporting Facility
EDT Latitude Longitude Course Direction KTS MPH feet Rate Location/Type
Mon 06:35:23 PM 44.9167 -93.2333 117° Southeast 166 191 2,600  Level Minneapolis TRACON
Mon 06:37:00 PM 44.7566 -92.7651 111° Southeast  Level Estimated
Mon 06:37:06 PM 44.9978 -93.2069 13° North 244 281 4,900  Level Minneapolis Center
Mon 06:38:00 PM 44.7145 -92.6133 113° Southeast  Level Estimated
Mon 06:39:00 PM 44.6721 -92.4617 125° Southeast  Level Estimated
Mon 06:39:12 PM 44.9689 -92.9792 100° East 283 326 11,100  Level Minneapolis Center
Mon 06:40:00 PM 44.6295 -92.3104 117° Southeast  Level Estimated
Mon 06:40:14 PM 44.9128 -92.8725 127° Southeast 334 384 12,700  Level Minneapolis Center
Mon 06:41:16 PM 44.8539 -92.7608 127° Southeast 351 404 14,700 1,871 Climbing Minneapolis Center
Mon 06:43:00 PM 44.7794 -92.4982 113° Southeast  Level Estimated
Mon 06:43:20 PM 44.7303 -92.5317 113° Southeast 365 420 18,500  Level Minneapolis Center
Mon 06:44:22 PM 44.6556 -92.3939 127° Southeast 368 423 20,300 1,452 Climbing Minneapolis Center
Mon 06:46:00 PM 44.5857 -92.1470 115° Southeast  Level Estimated
Mon 06:46:26 PM 44.5250 -92.1508 115° Southeast 388 447 23,000  Level Minneapolis Center
Mon 06:47:28 PM 44.4792 -92.0094 114° Southeast 400 460 24,100 1,152 Climbing Minneapolis Center
Mon 06:48:31 PM 44.4286 -91.8683 117° Southeast 405 466 25,400 1,056 Climbing Minneapolis Center
Mon 06:49:33 PM 44.3794 -91.7236 115° Southeast 409 471 26,300 1,016 Climbing Minneapolis Center
Mon 06:50:35 PM 44.3189 -91.5486 116° Southeast 415 478 27,500 1,113 Climbing Minneapolis Center
Mon 06:51:37 PM 44.2661 -91.3992 116° Southeast 422 486 28,600 1,403 Climbing Minneapolis Center
Mon 06:52:39 PM 44.2164 -91.2506 115° Southeast 427 491 30,400 1,548 Climbing Minneapolis Center
Mon 06:53:41 PM 44.1647 -91.1028 116° Southeast 428 493 31,800 1,355 Climbing Minneapolis Center
Mon 06:54:43 PM 44.1136 -90.9572 116° Southeast 426 490 33,200 1,043 Climbing Minneapolis Center
Mon 06:56:45 PM 44.0067 -90.6603 117° Southeast 403 464 35,000 584 Climbing Chicago Center
Mon 06:57:48 PM 43.9581 -90.5242 116° Southeast 397 457 35,000  Level Chicago Center
Mon 06:58:51 PM 43.9147 -90.4017 116° Southeast 398 458 35,000  Level Minneapolis Center
Mon 07:00:00 PM 43.8635 -90.2283 118° Southeast  Level Estimated
Mon 07:00:54 PM 43.8047 -90.1050 118° Southeast 398 458 35,000  Level Chicago Center
Mon 07:01:57 PM 43.7469 -89.9442 116° Southeast 399 459 35,000  Level Minneapolis Center
Mon 07:02:59 PM 43.6961 -89.8078 117° Southeast 399 459 35,000  Level Minneapolis Center
Mon 07:05:02 PM 43.5944 -89.5356 117° Southeast 401 461 35,000  Level Chicago Center
Mon 07:06:04 PM 43.5450 -89.4008 117° Southeast 396 456 35,000  Level Chicago Center
Mon 07:07:06 PM 43.4928 -89.2653 118° Southeast 400 460 35,000  Level Chicago Center
Mon 07:09:10 PM 43.3819 -88.9731 117° Southeast 399 459 35,000  Level Chicago Center
Mon 07:10:12 PM 43.3308 -88.8392 118° Southeast 400 460 35,000  Level Chicago Center
Mon 07:12:16 PM 43.2289 -88.5756 118° Southeast 395 455 35,000  Level Chicago Center
Mon 07:14:20 PM 43.1203 -88.2908 118° Southeast 393 452 35,000  Level Chicago Center
Mon 07:15:22 PM 43.1011 -88.1425 100° East 399 459 35,000  Level Chicago Center
Mon 07:16:24 PM 43.0856 -87.9947 98° East 396 456 35,000  Level Chicago Center
Mon 07:17:26 PM 43.0656 -87.8153 99° East 409 471 35,000  Level Chicago Center
Mon 07:18:28 PM 43.0497 -87.6608 98° East 412 474 35,000  Level Chicago Center
Mon 07:19:30 PM 43.0319 -87.5083 99° East 409 471 35,000  Level Chicago Center
Mon 07:21:35 PM 42.9969 -87.1947 99° East 410 472 35,000  Level Chicago Center
Mon 07:23:00 PM 42.9639 -86.9751 99° East  Level FlightAware Approximate
Mon 07:23:38 PM 42.9600 -86.8883 99° East 410 472 35,000  Level Chicago Center
Mon 07:24:40 PM 42.9417 -86.7339 99° East 413 475 35,000  Level Chicago Center
Mon 07:25:42 PM 42.9197 -86.5508 99° East 409 471 35,000  Level Chicago Center
Mon 07:26:44 PM 42.9014 -86.3972 99° East 412 474 35,000  Level Chicago Center
Mon 07:27:46 PM 42.8825 -86.2456 100° East 412 474 35,000  Level Chicago Center
Mon 07:28:48 PM 42.8633 -86.0933 100° East 414 476 35,000  Level Chicago Center
Mon 07:29:50 PM 42.8403 -85.9125 100° East 413 475 35,000  Level Chicago Center
Mon 07:30:52 PM 42.8206 -85.7600 100° East 414 476 35,000  Level Chicago Center
Mon 07:31:54 PM 42.8011 -85.6081 100° East 411 473 35,000  Level Chicago Center
Mon 07:32:56 PM 42.7731 -85.4575 104° East 412 474 35,000  Level Chicago Center
Mon 07:33:57 PM 42.7244 -85.3192 116° Southeast 405 466 35,000  Level Chicago Center
Mon 07:34:59 PM 42.6750 -85.1792 116° Southeast 410 472 35,000  Level Chicago Center
Mon 07:37:03 PM 42.5672 -84.8731 115° Southeast 409 471 35,000  Level Chicago Center
Mon 07:38:05 PM 42.5172 -84.7350 116° Southeast 409 471 35,000  Level Chicago Center
Mon 07:39:01 PM 42.4600 -84.6222 124° Southeast 408 470 35,000  Level Cleveland Center
Mon 07:41:01 PM 42.3481 -84.3594 120° Southeast 408 470 35,000  Level Cleveland Center
Mon 07:42:02 PM 42.2897 -84.2294 121° Southeast 408 470 35,000  Level Cleveland Center
Mon 07:44:17 PM 42.1631 -83.9300 120° Southeast 401 461 35,000  Level Chicago Center
Mon 07:45:00 PM 42.1200 -83.8447 124° Southeast 397 457 35,000  Level Cleveland Center
Mon 07:46:02 PM 42.0631 -83.7158 121° Southeast 397 457 35,000  Level Cleveland Center
Mon 07:47:03 PM 42.0061 -83.5872 121° Southeast 397 457 35,000  Level Cleveland Center
Mon 07:49:00 PM 41.8917 -83.3308 121° Southeast 397 457 35,000  Level Cleveland Center
Mon 07:50:02 PM 41.8342 -83.2056 122° Southeast 397 457 35,000  Level Cleveland Center
Mon 07:51:03 PM 41.7786 -83.0781 120° Southeast 397 457 35,000  Level Cleveland Center
Mon 07:52:01 PM 41.7186 -82.9506 122° Southeast 397 457 35,000  Level Cleveland Center
Mon 07:54:03 PM 41.5692 -82.7119 130° Southeast 392 451 35,000  Level Cleveland Center
Mon 07:55:01 PM 41.4917 -82.6067 134° Southeast 397 457 35,000  Level Cleveland Center
Mon 07:56:01 PM 41.4144 -82.5047 135° Southeast 397 457 35,000  Level Cleveland Center
Mon 07:57:02 PM 41.3347 -82.4028 136° Southeast 397 457 35,000  Level Cleveland Center
Mon 07:58:00 PM 41.2592 -82.3011 135° Southeast 392 451 35,000  Level Cleveland Center
Mon 07:59:01 PM 41.1794 -82.1969 135° Southeast 392 451 35,000  Level Cleveland Center
Mon 08:00:02 PM 41.1017 -82.0931 135° Southeast 392 451 35,000  Level Cleveland Center
Mon 08:01:00 PM 41.0236 -81.9922 136° Southeast 392 451 35,000  Level Cleveland Center
Mon 08:02:02 PM 40.9456 -81.8944 137° Southeast 392 451 35,000  Level Cleveland Center
Mon 08:03:03 PM 40.8675 -81.7911 135° Southeast 397 457 35,000  Level Cleveland Center
Mon 08:04:01 PM 40.7872 -81.6883 136° Southeast 397 457 35,000  Level Cleveland Center
Mon 08:05:02 PM 40.7192 -81.5994 135° Southeast 397 457 35,000  Level Cleveland Center
Mon 08:06:00 PM 40.6367 -81.4969 137° Southeast 397 457 35,000  Level Cleveland Center
Mon 08:07:00 PM 40.5625 -81.3922 133° Southeast 397 457 35,000  Level Cleveland Center
Mon 08:08:00 PM 40.4839 -81.2928 136° Southeast 392 451 35,000  Level Cleveland Center
Mon 08:09:00 PM 40.4053 -81.1939 136° Southeast 392 451 35,000  Level Cleveland Center
Mon 08:10:00 PM 40.3286 -81.0950 135° Southeast 392 451 35,000  Level Cleveland Center
Mon 08:11:00 PM 40.2478 -80.9967 137° Southeast 397 457 35,000 -250 Level Cleveland Center
Mon 08:12:00 PM 40.1689 -80.8956 136° Southeast 397 457 34,500 -750 Descending Cleveland Center
Mon 08:13:00 PM 40.0900 -80.8003 137° Southeast 397 457 33,500 -967 Descending Cleveland Center
Mon 08:14:00 PM 40.0144 -80.7059 136° Southeast  Level FlightAware Approximate
Mon 08:15:00 PM 39.9294 -80.5992 136° Southeast 397 457 31,600  Level Cleveland Center
Mon 08:16:00 PM 39.8483 -80.4992 137° Southeast 397 457 31,000 -300 Descending Cleveland Center
Mon 08:17:00 PM 39.7689 -80.3967 135° Southeast 397 457 31,000  Level Cleveland Center
Mon 08:18:50 PM 39.6206 -80.2200 137° Southeast 396 456 31,000  Level Washington Center
Mon 08:20:51 PM 39.4572 -80.0214 137° Southeast 401 461 31,000  Level Washington Center
Mon 08:22:49 PM 39.3000 -79.8133 134° Southeast 401 461 31,000  Level Washington Center
Mon 08:23:49 PM 39.2822 -79.6647 99° East 385 443 31,000  Level Washington Center
Mon 08:24:50 PM 39.2725 -79.5167 95° East 391 450 31,000 -446 Level Washington Center
Mon 08:25:50 PM 39.2606 -79.3686 96° East 398 458 30,100 -1,587 Descending Washington Center
Mon 08:26:51 PM 39.2464 -79.2231 97° East 409 471 27,800 -1,467 Descending Washington Center
Mon 08:28:00 PM 39.2274 -79.0694 99° East  Level FlightAware Approximate
Mon 08:28:50 PM 39.2233 -78.9381 99° East 404 465 25,700  Level Washington Center
Mon 08:31:26 PM 39.1833 -78.5667 98° East 366 421 20,100 -2,045 Descending Potomac TRACON
Mon 08:31:49 PM 39.1836 -78.5425 89° East 369 425 19,600 -1,663 Descending Washington Center
Mon 08:32:49 PM 39.1700 -78.4161 98° East 369 425 17,800 -1,500 Descending Washington Center
Mon 08:34:21 PM 39.1333 -78.2167 103° East 338 389 15,800 -1,140 Descending Potomac TRACON
Mon 08:34:50 PM 39.1189 -78.1842 120° Southeast 345 397 15,500 -818 Descending Washington Center
Mon 08:35:49 PM 39.0900 -78.0708 108° East 333 383 14,600 -1,033 Descending Washington Center
Mon 08:37:21 PM 39.0500 -77.8833 105° East 318 366 12,900 -1,041 Descending Potomac TRACON
Mon 08:37:50 PM 39.0358 -77.8550 123° Southeast 317 365 12,500 -1,310 Descending Washington Center
Mon 08:38:48 PM 39.0067 -77.7472 109° East 301 346 11,000 -914 Descending Washington Center
Mon 08:40:21 PM 38.9667 -77.6000 109° East 268 308 10,200 -824 Descending Potomac TRACON
Mon 08:41:21 PM 38.9333 -77.5167 117° Southeast 260 299 8,900 -1,200 Descending Potomac TRACON
Mon 08:42:21 PM 38.9000 -77.4333 117° Southeast 237 273 7,800 -1,050 Descending Potomac TRACON
Mon 08:43:21 PM 38.8833 -77.3667 108° East 207 238 6,800 -900 Descending Potomac TRACON
Mon 08:44:21 PM 38.8500 -77.3167 131° Southeast 176 203 6,000 -400 Descending Potomac TRACON
Mon 08:45:21 PM 38.8333 -77.2500 108° East 177 204 6,000  Level Potomac TRACON
Mon 08:46:21 PM 38.8000 -77.2000 131° Southeast 177 204 6,000  Level Potomac TRACON
Mon 08:47:21 PM 38.7833 -77.1500 113° Southeast 178 205 6,000 -526 Level Potomac TRACON
Mon 08:48:15 PM 38.7500 -77.1167 142° Southeast 184 212 5,000 -1,000 Descending Potomac TRACON
Mon 08:49:15 PM 38.7000 -77.1167 180° South 180 207 4,100 -500 Descending Potomac TRACON
Mon 08:50:15 PM 38.6500 -77.1000 165° South 172 198 4,000 -50 Descending Potomac TRACON
Mon 08:51:15 PM 38.6000 -77.1000 180° South 153 176 4,000 -350 Level Potomac TRACON
Mon 08:52:15 PM 38.6000 -77.0500 90° East 162 186 3,300 -750 Descending Potomac TRACON
Mon 08:53:15 PM 38.6333 -77.0167 38° Northeast 182 209 2,500 -800 Descending Potomac TRACON

Login

Don't have an account? Register now (free) for customized features, flight alerts, and more!